sensor_id;sensor_type;location;lat;lon;timestamp;pressure;altitude;pressure_sealevel;temperature;humidity
47104;BME280;32853;52.164;5.400;2024-03-08T00:01:52;101852.34;;;6.08;100.00
47104;BME280;32853;52.164;5.400;2024-03-08T00:04:17;101845.44;;;6.11;100.00
47104;BME280;32853;52.164;5.400;2024-03-08T00:06:42;101850.53;;;6.27;100.00
47104;BME280;32853;52.164;5.400;2024-03-08T00:09:10;101847.09;;;6.22;100.00
47104;BME280;32853;52.164;5.400;2024-03-08T00:11:40;101845.47;;;6.01;100.00
47104;BME280;32853;52.164;5.400;2024-03-08T00:14:05;101845.47;;;6.04;100.00
47104;BME280;32853;52.164;5.400;2024-03-08T00:16:32;101843.63;;;6.23;100.00
47104;BME280;32853;52.164;5.400;2024-03-08T00:18:57;101840.25;;;6.05;100.00
47104;BME280;32853;52.164;5.400;2024-03-08T00:21:23;101839.47;;;5.91;100.00
47104;BME280;32853;52.164;5.400;2024-03-08T00:23:48;101838.56;;;5.97;100.00
47104;BME280;32853;52.164;5.400;2024-03-08T00:26:13;101835.16;;;5.90;100.00
47104;BME280;32853;52.164;5.400;2024-03-08T00:28:42;101830.78;;;5.95;100.00
47104;BME280;32853;52.164;5.400;2024-03-08T00:31:08;101835.13;;;5.84;100.00
47104;BME280;32853;52.164;5.400;2024-03-08T00:33:33;101840.34;;;5.90;100.00
47104;BME280;32853;52.164;5.400;2024-03-08T00:36:00;101834.22;;;5.97;100.00
47104;BME280;32853;52.164;5.400;2024-03-08T00:38:25;101835.13;;;5.93;100.00
47104;BME280;32853;52.164;5.400;2024-03-08T00:40:54;101835.13;;;5.93;100.00
47104;BME280;32853;52.164;5.400;2024-03-08T00:43:21;101822.94;;;6.04;100.00
47104;BME280;32853;52.164;5.400;2024-03-08T00:45:48;101829.00;;;6.03;100.00
47104;BME280;32853;52.164;5.400;2024-03-08T00:48:13;101824.75;;;5.93;100.00
47104;BME280;32853;52.164;5.400;2024-03-08T00:50:41;101826.41;;;6.03;100.00
47104;BME280;32853;52.164;5.400;2024-03-08T00:53:07;101822.00;;;6.19;100.00
47104;BME280;32853;52.164;5.400;2024-03-08T00:58:00;101817.75;;;6.06;100.00
47104;BME280;32853;52.164;5.400;2024-03-08T01:00:26;101810.81;;;6.05;100.00
47104;BME280;32853;52.164;5.400;2024-03-08T01:05:26;101800.53;;;5.83;100.00
47104;BME280;32853;52.164;5.400;2024-03-08T01:07:51;101798.91;;;5.60;100.00
47104;BME280;32853;52.164;5.400;2024-03-08T01:10:16;101795.44;;;5.59;100.00
47104;BME280;32853;52.164;5.400;2024-03-08T01:12:42;101791.09;;;5.66;100.00
47104;BME280;32853;52.164;5.400;2024-03-08T01:15:10;101788.47;;;5.70;100.00
47104;BME280;32853;52.164;5.400;2024-03-08T01:17:35;101783.31;;;5.63;100.00
47104;BME280;32853;52.164;5.400;2024-03-08T01:20:01;101775.50;;;5.69;100.00
47104;BME280;32853;52.164;5.400;2024-03-08T01:22:26;101776.47;;;5.40;100.00
47104;BME280;32853;52.164;5.400;2024-03-08T01:24:53;101768.69;;;5.46;100.00
47104;BME280;32853;52.164;5.400;2024-03-08T01:27:19;101773.84;;;5.56;100.00
47104;BME280;32853;52.164;5.400;2024-03-08T01:29:45;101768.69;;;5.40;100.00
47104;BME280;32853;52.164;5.400;2024-03-08T01:32:10;101765.25;;;5.37;100.00
47104;BME280;32853;52.164;5.400;2024-03-08T01:34:35;101762.63;;;5.41;100.00
47104;BME280;32853;52.164;5.400;2024-03-08T01:37:00;101759.22;;;5.29;100.00
47104;BME280;32853;52.164;5.400;2024-03-08T01:39:26;101756.63;;;5.35;100.00
47104;BME280;32853;52.164;5.400;2024-03-08T01:41:53;101754.91;;;5.35;100.00
47104;BME280;32853;52.164;5.400;2024-03-08T01:44:19;101747.91;;;5.51;100.00
47104;BME280;32853;52.164;5.400;2024-03-08T01:46:44;101748.00;;;5.33;100.00
47104;BME280;32853;52.164;5.400;2024-03-08T01:49:10;101752.31;;;5.35;100.00
47104;BME280;32853;52.164;5.400;2024-03-08T01:51:36;101743.66;;;5.36;100.00
47104;BME280;32853;52.164;5.400;2024-03-08T01:54:02;101740.16;;;5.42;100.00
47104;BME280;32853;52.164;5.400;2024-03-08T01:56:28;101741.09;;;5.27;100.00
47104;BME280;32853;52.164;5.400;2024-03-08T01:58:54;101738.50;;;5.27;100.00
47104;BME280;32853;52.164;5.400;2024-03-08T02:01:19;101736.75;;;5.31;100.00
47104;BME280;32853;52.164;5.400;2024-03-08T02:03:45;101737.72;;;4.93;100.00
47104;BME280;32853;52.164;5.400;2024-03-08T02:06:11;101734.19;;;5.18;100.00
47104;BME280;32853;52.164;5.400;2024-03-08T02:08:38;101729.03;;;5.14;100.00
47104;BME280;32853;52.164;5.400;2024-03-08T02:11:03;101733.31;;;5.27;100.00
47104;BME280;32853;52.164;5.400;2024-03-08T02:13:36;101722.94;;;5.25;100.00
47104;BME280;32853;52.164;5.400;2024-03-08T02:16:01;101729.06;;;5.02;100.00
47104;BME280;32853;52.164;5.400;2024-03-08T02:18:28;101723.81;;;5.24;100.00
47104;BME280;32853;52.164;5.400;2024-03-08T02:20:54;101723.00;;;5.13;100.00
47104;BME280;32853;52.164;5.400;2024-03-08T02:23:22;101722.91;;;5.33;100.00
47104;BME280;32853;52.164;5.400;2024-03-08T02:25:49;101714.34;;;5.13;100.00
47104;BME280;32853;52.164;5.400;2024-03-08T02:28:15;101716.09;;;4.99;100.00
47104;BME280;32853;52.164;5.400;2024-03-08T02:30:40;101715.22;;;5.06;100.00
47104;BME280;32853;52.164;5.400;2024-03-08T02:33:06;101707.41;;;5.16;100.00
47104;BME280;32853;52.164;5.400;2024-03-08T02:35:32;101707.47;;;5.00;100.00
47104;BME280;32853;52.164;5.400;2024-03-08T02:37:57;101696.19;;;5.10;100.00
47104;BME280;32853;52.164;5.400;2024-03-08T02:40:26;101704.88;;;5.01;100.00
47104;BME280;32853;52.164;5.400;2024-03-08T02:42:51;101702.28;;;4.95;100.00
47104;BME280;32853;52.164;5.400;2024-03-08T02:45:17;101687.56;;;5.11;100.00
47104;BME280;32853;52.164;5.400;2024-03-08T02:47:43;101678.06;;;5.07;100.00
47104;BME280;32853;52.164;5.400;2024-03-08T02:50:08;101691.06;;;4.93;100.00
47104;BME280;32853;52.164;5.400;2024-03-08T02:52:34;101682.41;;;5.02;100.00
47104;BME280;32853;52.164;5.400;2024-03-08T02:55:00;101686.72;;;4.98;100.00
47104;BME280;32853;52.164;5.400;2024-03-08T02:57:27;101677.25;;;4.86;100.00
47104;BME280;32853;52.164;5.400;2024-03-08T02:59:53;101672.97;;;4.75;100.00
47104;BME280;32853;52.164;5.400;2024-03-08T03:02:18;101669.53;;;4.77;100.00
47104;BME280;32853;52.164;5.400;2024-03-08T03:04:44;101677.31;;;4.77;100.00
47104;BME280;32853;52.164;5.400;2024-03-08T03:07:09;101668.66;;;4.81;100.00
47104;BME280;32853;52.164;5.400;2024-03-08T03:09:34;101665.22;;;4.73;100.00
47104;BME280;32853;52.164;5.400;2024-03-08T03:12:00;101663.47;;;4.72;100.00
47104;BME280;32853;52.164;5.400;2024-03-08T03:14:25;101660.03;;;4.62;100.00
47104;BME280;32853;52.164;5.400;2024-03-08T03:16:53;101653.13;;;4.78;100.00
47104;BME280;32853;52.164;5.400;2024-03-08T03:19:19;101654.78;;;4.87;100.00
47104;BME280;32853;52.164;5.400;2024-03-08T03:21:45;101652.16;;;5.01;100.00
47104;BME280;32853;52.164;5.400;2024-03-08T03:24:17;101653.06;;;4.84;100.00
47104;BME280;32853;52.164;5.400;2024-03-08T03:27:00;101647.00;;;4.94;100.00
47104;BME280;32853;52.164;5.400;2024-03-08T03:29:25;101645.28;;;4.93;100.00
47104;BME280;32853;52.164;5.400;2024-03-08T03:31:51;101639.22;;;4.94;100.00
47104;BME280;32853;52.164;5.400;2024-03-08T03:34:17;101647.91;;;4.75;100.00
47104;BME280;32853;52.164;5.400;2024-03-08T03:36:44;101646.19;;;4.80;100.00
47104;BME280;32853;52.164;5.400;2024-03-08T03:39:22;101636.69;;;4.73;100.00
47104;BME280;32853;52.164;5.400;2024-03-08T03:41:48;101640.16;;;4.72;100.00
47104;BME280;32853;52.164;5.400;2024-03-08T03:44:26;101634.06;;;4.87;100.00
47104;BME280;32853;52.164;5.400;2024-03-08T03:46:58;101635.81;;;4.76;100.00
47104;BME280;32853;52.164;5.400;2024-03-08T03:49:25;101628.09;;;4.62;100.00
47104;BME280;32853;52.164;5.400;2024-03-08T03:51:51;101631.59;;;4.55;100.00
47104;BME280;32853;52.164;5.400;2024-03-08T03:54:27;101627.22;;;4.68;100.00
47104;BME280;32853;52.164;5.400;2024-03-08T03:56:57;101629.75;;;4.83;100.00
47104;BME280;32853;52.164;5.400;2024-03-08T03:59:23;101624.59;;;4.80;100.00
47104;BME280;32853;52.164;5.400;2024-03-08T04:01:49;101623.81;;;4.58;100.00
47104;BME280;32853;52.164;5.400;2024-03-08T04:04:15;101631.56;;;4.59;100.00
47104;BME280;32853;52.164;5.400;2024-03-08T04:06:41;101628.16;;;4.47;100.00
47104;BME280;32853;52.164;5.400;2024-03-08T04:09:07;101624.66;;;4.66;100.00
47104;BME280;32853;52.164;5.400;2024-03-08T04:11:37;101627.25;;;4.52;100.00
47104;BME280;32853;52.164;5.400;2024-03-08T04:16:32;101611.69;;;4.60;100.00
47104;BME280;32853;52.164;5.400;2024-03-08T04:18:58;101610.88;;;4.55;100.00
47104;BME280;32853;52.164;5.400;2024-03-08T04:21:26;101605.66;;;4.53;100.00
47104;BME280;32853;52.164;5.400;2024-03-08T04:23:54;101614.34;;;4.40;100.00
47104;BME280;32853;52.164;5.400;2024-03-08T04:26:23;101613.47;;;4.49;100.00
47104;BME280;32853;52.164;5.400;2024-03-08T04:28:56;101609.16;;;4.48;100.00
47104;BME280;32853;52.164;5.400;2024-03-08T04:34:12;101597.00;;;4.68;100.00
47104;BME280;32853;52.164;5.400;2024-03-08T04:36:38;101598.75;;;4.66;100.00
47104;BME280;32853;52.164;5.400;2024-03-08T04:39:04;101601.34;;;4.52;100.00
47104;BME280;32853;52.164;5.400;2024-03-08T04:41:29;101602.22;;;4.57;100.00
47104;BME280;32853;52.164;5.400;2024-03-08T04:44:00;101595.31;;;4.50;100.00
47104;BME280;32853;52.164;5.400;2024-03-08T04:46:25;101594.41;;;4.62;100.00
47104;BME280;32853;52.164;5.400;2024-03-08T04:48:58;101593.59;;;4.48;100.00
47104;BME280;32853;52.164;5.400;2024-03-08T04:51:24;101587.53;;;4.52;100.00
47104;BME280;32853;52.164;5.400;2024-03-08T04:53:50;101592.75;;;4.49;100.00
47104;BME280;32853;52.164;5.400;2024-03-08T04:56:16;101592.75;;;4.44;100.00
47104;BME280;32853;52.164;5.400;2024-03-08T04:58:41;101590.16;;;4.49;100.00
47104;BME280;32853;52.164;5.400;2024-03-08T05:01:07;101595.31;;;4.43;100.00
47104;BME280;32853;52.164;5.400;2024-03-08T05:03:35;101590.16;;;4.43;100.00
47104;BME280;32853;52.164;5.400;2024-03-08T05:06:00;101579.81;;;4.44;100.00
47104;BME280;32853;52.164;5.400;2024-03-08T05:08:26;101587.59;;;4.36;100.00
47104;BME280;32853;52.164;5.400;2024-03-08T05:10:52;101590.19;;;4.29;100.00
47104;BME280;32853;52.164;5.400;2024-03-08T05:13:17;101591.06;;;4.19;100.00
47104;BME280;32853;52.164;5.400;2024-03-08T05:15:43;101585.88;;;4.35;100.00
47104;BME280;32853;52.164;5.400;2024-03-08T05:18:13;101591.06;;;4.32;100.00
47104;BME280;32853;52.164;5.400;2024-03-08T05:20:41;101589.31;;;4.36;100.00
47104;BME280;32853;52.164;5.400;2024-03-08T05:23:06;101579.78;;;4.52;100.00
47104;BME280;32853;52.164;5.400;2024-03-08T05:25:31;101580.69;;;4.29;100.00
47104;BME280;32853;52.164;5.400;2024-03-08T05:27:57;101579.88;;;3.98;100.00
47104;BME280;32853;52.164;5.400;2024-03-08T05:30:23;101577.28;;;4.09;100.00
47104;BME280;32853;52.164;5.400;2024-03-08T05:32:48;101574.69;;;4.15;100.00
47104;BME280;32853;52.164;5.400;2024-03-08T05:35:13;101579.88;;;4.06;100.00
47104;BME280;32853;52.164;5.400;2024-03-08T05:37:41;101574.72;;;3.72;100.00
47104;BME280;32853;52.164;5.400;2024-03-08T05:40:07;101568.69;;;3.90;100.00
47104;BME280;32853;52.164;5.400;2024-03-08T05:42:34;101567.78;;;3.99;100.00
47104;BME280;32853;52.164;5.400;2024-03-08T05:45:00;101566.94;;;3.97;100.00
47104;BME280;32853;52.164;5.400;2024-03-08T05:47:25;101566.97;;;3.89;100.00
47104;BME280;32853;52.164;5.400;2024-03-08T05:49:50;101566.94;;;3.98;100.00
47104;BME280;32853;52.164;5.400;2024-03-08T05:52:18;101565.19;;;3.99;100.00
47104;BME280;32853;52.164;5.400;2024-03-08T05:54:43;101567.81;;;4.02;100.00
47104;BME280;32853;52.164;5.400;2024-03-08T05:57:10;101565.22;;;3.93;100.00
47104;BME280;32853;52.164;5.400;2024-03-08T05:59:36;101567.81;;;3.93;100.00
47104;BME280;32853;52.164;5.400;2024-03-08T06:02:01;101564.38;;;3.89;100.00
47104;BME280;32853;52.164;5.400;2024-03-08T06:04:36;101563.47;;;4.05;100.00
47104;BME280;32853;52.164;5.400;2024-03-08T06:07:03;101554.84;;;3.99;100.00
47104;BME280;32853;52.164;5.400;2024-03-08T06:09:28;101545.38;;;3.96;100.00
47104;BME280;32853;52.164;5.400;2024-03-08T06:11:53;101541.91;;;4.05;100.00
47104;BME280;32853;52.164;5.400;2024-03-08T06:14:19;101548.00;;;3.89;100.00
47104;BME280;32853;52.164;5.400;2024-03-08T06:16:46;101550.56;;;3.92;100.00
47104;BME280;32853;52.164;5.400;2024-03-08T06:19:12;101545.38;;;3.95;100.00
47104;BME280;32853;52.164;5.400;2024-03-08T06:21:37;101551.44;;;3.78;100.00
47104;BME280;32853;52.164;5.400;2024-03-08T06:24:03;101546.25;;;3.92;100.00
47104;BME280;32853;52.164;5.400;2024-03-08T06:26:28;101541.91;;;4.11;100.00
47104;BME280;32853;52.164;5.400;2024-03-08T06:28:54;101554.88;;;3.91;100.00
47104;BME280;32853;52.164;5.400;2024-03-08T06:31:19;101546.22;;;3.97;100.00
47104;BME280;32853;52.164;5.400;2024-03-08T06:33:45;101547.94;;;4.05;100.00
47104;BME280;32853;52.164;5.400;2024-03-08T06:36:10;101547.13;;;3.90;100.00
47104;BME280;32853;52.164;5.400;2024-03-08T06:38:39;101541.94;;;3.93;100.00
47104;BME280;32853;52.164;5.400;2024-03-08T06:41:08;101549.72;;;3.91;100.00
47104;BME280;32853;52.164;5.400;2024-03-08T06:43:34;101543.66;;;3.88;100.00
47104;BME280;32853;52.164;5.400;2024-03-08T06:45:59;101541.94;;;3.94;100.00
47104;BME280;32853;52.164;5.400;2024-03-08T06:48:25;101537.63;;;3.86;100.00
47104;BME280;32853;52.164;5.400;2024-03-08T06:50:50;101535.06;;;3.89;100.00
47104;BME280;32853;52.164;5.400;2024-03-08T06:53:25;101540.19;;;4.04;100.00
47104;BME280;32853;52.164;5.400;2024-03-08T06:55:50;101532.44;;;4.01;100.00
47104;BME280;32853;52.164;5.400;2024-03-08T06:58:18;101535.91;;;3.80;100.00
47104;BME280;32853;52.164;5.400;2024-03-08T07:00:45;101538.47;;;3.88;100.00
47104;BME280;32853;52.164;5.400;2024-03-08T07:03:12;101538.47;;;4.04;100.00
47104;BME280;32853;52.164;5.400;2024-03-08T07:05:45;101543.66;;;3.91;100.00
47104;BME280;32853;52.164;5.400;2024-03-08T07:08:11;101534.16;;;4.02;100.00
47104;BME280;32853;52.164;5.400;2024-03-08T07:10:39;101537.59;;;4.08;100.00
47104;BME280;32853;52.164;5.400;2024-03-08T07:13:06;101527.25;;;4.01;100.00
47104;BME280;32853;52.164;5.400;2024-03-08T07:15:33;101528.09;;;4.12;100.00
47104;BME280;32853;52.164;5.400;2024-03-08T07:18:01;101522.06;;;4.12;100.00
47104;BME280;32853;52.164;5.400;2024-03-08T07:20:27;101531.50;;;4.26;100.00
47104;BME280;32853;52.164;5.400;2024-03-08T07:22:53;101530.69;;;4.04;100.00
47104;BME280;32853;52.164;5.400;2024-03-08T07:25:19;101529.81;;;4.07;100.00
47104;BME280;32853;52.164;5.400;2024-03-08T07:27:48;101518.56;;;4.20;100.00
47104;BME280;32853;52.164;5.400;2024-03-08T07:30:14;101514.31;;;4.01;100.00
47104;BME280;32853;52.164;5.400;2024-03-08T07:32:59;101516.88;;;4.08;100.00
47104;BME280;32853;52.164;5.400;2024-03-08T07:35:28;101513.38;;;4.35;100.00
47104;BME280;32853;52.164;5.400;2024-03-08T07:37:53;101505.59;;;4.29;100.00
47104;BME280;32853;52.164;5.400;2024-03-08T07:40:20;101503.88;;;4.28;100.00
47104;BME280;32853;52.164;5.400;2024-03-08T07:42:46;101509.88;;;4.43;100.00
47104;BME280;32853;52.164;5.400;2024-03-08T07:45:12;101497.78;;;4.40;100.00
47104;BME280;32853;52.164;5.400;2024-03-08T07:47:37;101491.84;;;4.23;100.00
47104;BME280;32853;52.164;5.400;2024-03-08T07:52:33;101495.25;;;4.35;100.00
47104;BME280;32853;52.164;5.400;2024-03-08T07:57:35;101490.84;;;4.51;100.00
47104;BME280;32853;52.164;5.400;2024-03-08T08:00:05;101488.16;;;4.71;100.00
47104;BME280;32853;52.164;5.400;2024-03-08T08:02:32;101490.69;;;4.83;100.00
47104;BME280;32853;52.164;5.400;2024-03-08T08:04:59;101489.88;;;4.78;100.00
47104;BME280;32853;52.164;5.400;2024-03-08T08:07:24;101488.91;;;4.87;100.00
47104;BME280;32853;52.164;5.400;2024-03-08T08:09:53;101474.38;;;4.66;100.00
47104;BME280;32853;52.164;5.400;2024-03-08T08:12:21;101476.09;;;4.65;100.00
47104;BME280;32853;52.164;5.400;2024-03-08T08:14:46;101469.16;;;4.77;100.00
47104;BME280;32853;52.164;5.400;2024-03-08T08:17:12;101468.19;;;4.91;100.00
47104;BME280;32853;52.164;5.400;2024-03-08T08:19:37;101468.13;;;4.99;100.00
47104;BME280;32853;52.164;5.400;2024-03-08T08:22:07;101455.00;;;5.19;100.00
47104;BME280;32853;52.164;5.400;2024-03-08T08:24:33;101462.06;;;4.99;100.00
47104;BME280;32853;52.164;5.400;2024-03-08T08:26:59;101456.66;;;5.32;100.00
47104;BME280;32853;52.164;5.400;2024-03-08T08:31:58;101454.69;;;5.59;100.00
47104;BME280;32853;52.164;5.400;2024-03-08T08:34:24;101455.53;;;5.59;100.00
47104;BME280;32853;52.164;5.400;2024-03-08T08:36:51;101450.25;;;5.68;100.00
47104;BME280;32853;52.164;5.400;2024-03-08T08:39:16;101451.09;;;5.70;100.00
47104;BME280;32853;52.164;5.400;2024-03-08T08:41:42;101448.63;;;5.58;100.00
47104;BME280;32853;52.164;5.400;2024-03-08T08:44:23;101444.97;;;5.79;100.00
47104;BME280;32853;52.164;5.400;2024-03-08T08:46:50;101442.94;;;6.10;100.00
47104;BME280;32853;52.164;5.400;2024-03-08T08:49:24;101441.19;;;6.10;100.00
47104;BME280;32853;52.164;5.400;2024-03-08T08:51:52;101437.84;;;5.98;100.00
47104;BME280;32853;52.164;5.400;2024-03-08T08:54:17;101429.16;;;6.02;100.00
47104;BME280;32853;52.164;5.400;2024-03-08T08:56:43;101427.19;;;6.22;100.00
47104;BME280;32853;52.164;5.400;2024-03-08T08:59:12;101431.63;;;6.13;100.00
47104;BME280;32853;52.164;5.400;2024-03-08T09:01:44;101420.19;;;6.27;100.00
47104;BME280;32853;52.164;5.400;2024-03-08T09:04:12;101424.97;;;6.59;99.27
47104;BME280;32853;52.164;5.400;2024-03-08T09:06:37;101417.84;;;6.72;98.46
47104;BME280;32853;52.164;5.400;2024-03-08T09:09:02;101421.41;;;6.63;97.33
47104;BME280;32853;52.164;5.400;2024-03-08T09:11:29;101416.75;;;6.85;96.56
47104;BME280;32853;52.164;5.400;2024-03-08T09:13:54;101409.56;;;6.43;95.86
47104;BME280;32853;52.164;5.400;2024-03-08T09:16:20;101401.75;;;6.47;98.30
47104;BME280;32853;52.164;5.400;2024-03-08T09:18:45;101414.81;;;6.39;97.10
47104;BME280;32853;52.164;5.400;2024-03-08T09:21:14;101401.81;;;6.41;96.11
47104;BME280;32853;52.164;5.400;2024-03-08T09:23:40;101398.25;;;6.48;96.51
47104;BME280;32853;52.164;5.400;2024-03-08T09:26:06;101398.09;;;6.59;95.52
47104;BME280;32853;52.164;5.400;2024-03-08T09:28:39;101396.25;;;6.68;95.27
47104;BME280;32853;52.164;5.400;2024-03-08T09:31:04;101381.13;;;6.93;93.49
47104;BME280;32853;52.164;5.400;2024-03-08T09:33:30;101375.88;;;6.95;93.32
47104;BME280;32853;52.164;5.400;2024-03-08T09:35:56;101382.03;;;6.91;92.53
47104;BME280;32853;52.164;5.400;2024-03-08T09:38:22;101379.97;;;7.11;90.05
47104;BME280;32853;52.164;5.400;2024-03-08T09:40:47;101366.53;;;7.36;90.67
47104;BME280;32853;52.164;5.400;2024-03-08T09:43:13;101365.66;;;7.35;89.53
47104;BME280;32853;52.164;5.400;2024-03-08T09:45:38;101361.47;;;7.26;87.72
47104;BME280;32853;52.164;5.400;2024-03-08T09:48:06;101355.78;;;7.52;89.86
47104;BME280;32853;52.164;5.400;2024-03-08T09:50:37;101351.03;;;7.74;85.24
47104;BME280;32853;52.164;5.400;2024-03-08T09:53:02;101347.97;;;7.54;85.03
47104;BME280;32853;52.164;5.400;2024-03-08T09:55:27;101337.59;;;7.94;85.60
47104;BME280;32853;52.164;5.400;2024-03-08T09:57:58;101339.66;;;8.19;82.94
47104;BME280;32853;52.164;5.400;2024-03-08T10:00:43;101330.09;;;8.21;83.26
47104;BME280;32853;52.164;5.400;2024-03-08T10:03:09;101324.84;;;8.61;80.11
47104;BME280;32853;52.164;5.400;2024-03-08T10:05:35;101332.19;;;8.81;78.30
47104;BME280;32853;52.164;5.400;2024-03-08T10:08:00;101325.50;;;9.05;76.49
47104;BME280;32853;52.164;5.400;2024-03-08T10:10:25;101323.00;;;9.00;74.11
47104;BME280;32853;52.164;5.400;2024-03-08T10:15:19;101321.03;;;9.10;72.94
47104;BME280;32853;52.164;5.400;2024-03-08T10:17:45;101313.69;;;9.24;73.40
47104;BME280;32853;52.164;5.400;2024-03-08T10:20:14;101304.66;;;9.36;73.26
47104;BME280;32853;52.164;5.400;2024-03-08T10:22:40;101309.38;;;9.54;71.78
47104;BME280;32853;52.164;5.400;2024-03-08T10:25:07;101298.94;;;9.54;70.97
47104;BME280;32853;52.164;5.400;2024-03-08T10:27:35;101293.41;;;9.65;70.37
47104;BME280;32853;52.164;5.400;2024-03-08T10:30:00;101289.53;;;9.78;69.24
47104;BME280;32853;52.164;5.400;2024-03-08T10:32:26;101279.00;;;9.81;68.30
47104;BME280;32853;52.164;5.400;2024-03-08T10:34:51;101276.22;;;9.85;69.38
47104;BME280;32853;52.164;5.400;2024-03-08T10:37:17;101282.72;;;10.02;67.59
47104;BME280;32853;52.164;5.400;2024-03-08T10:39:50;101280.75;;;9.80;67.07
47104;BME280;32853;52.164;5.400;2024-03-08T10:42:17;101272.03;;;9.50;67.07
47104;BME280;32853;52.164;5.400;2024-03-08T10:45:10;101261.94;;;9.69;67.55
47104;BME280;32853;52.164;5.400;2024-03-08T10:47:39;101257.88;;;9.88;67.24
47104;BME280;32853;52.164;5.400;2024-03-08T10:52:31;101248.19;;;9.92;65.61
47104;BME280;32853;52.164;5.400;2024-03-08T10:54:57;101246.56;;;9.88;63.46
47104;BME280;32853;52.164;5.400;2024-03-08T10:57:23;101243.81;;;10.21;64.15
47104;BME280;32853;52.164;5.400;2024-03-08T10:59:49;101241.28;;;10.17;63.30
47104;BME280;32853;52.164;5.400;2024-03-08T11:02:15;101242.72;;;10.28;62.94
47104;BME280;32853;52.164;5.400;2024-03-08T11:04:45;101228.50;;;10.36;61.74
47104;BME280;32853;52.164;5.400;2024-03-08T11:07:10;101226.28;;;9.96;61.66
47104;BME280;32853;52.164;5.400;2024-03-08T11:09:42;101219.47;;;10.46;61.50
47104;BME280;32853;52.164;5.400;2024-03-08T11:12:21;101209.84;;;10.47;61.12
47104;BME280;32853;52.164;5.400;2024-03-08T11:14:47;101201.75;;;10.28;60.60
47104;BME280;32853;52.164;5.400;2024-03-08T11:17:16;101200.56;;;10.65;60.04
47104;BME280;32853;52.164;5.400;2024-03-08T11:19:46;101195.31;;;10.65;59.10
47104;BME280;32853;52.164;5.400;2024-03-08T11:22:22;101195.97;;;10.95;58.75
47104;BME280;32853;52.164;5.400;2024-03-08T11:24:52;101178.63;;;10.92;58.10
47104;BME280;32853;52.164;5.400;2024-03-08T11:27:17;101178.75;;;10.89;58.31
47104;BME280;32853;52.164;5.400;2024-03-08T11:29:42;101173.59;;;10.88;58.11
47104;BME280;32853;52.164;5.400;2024-03-08T11:34:34;101158.97;;;11.05;57.16
47104;BME280;32853;52.164;5.400;2024-03-08T11:37:00;101151.16;;;11.04;56.11
47104;BME280;32853;52.164;5.400;2024-03-08T11:39:25;101153.97;;;11.23;56.50
47104;BME280;32853;52.164;5.400;2024-03-08T11:41:51;101147.13;;;11.19;55.83
47104;BME280;32853;52.164;5.400;2024-03-08T11:44:17;101142.69;;;11.66;55.45
47104;BME280;32853;52.164;5.400;2024-03-08T11:49:13;101133.31;;;11.15;55.37
47104;BME280;32853;52.164;5.400;2024-03-08T11:51:39;101125.22;;;11.67;55.71
47104;BME280;32853;52.164;5.400;2024-03-08T11:54:04;101129.03;;;11.58;54.75
47104;BME280;32853;52.164;5.400;2024-03-08T11:56:31;101125.31;;;11.63;54.93
47104;BME280;32853;52.164;5.400;2024-03-08T11:58:57;101118.28;;;11.87;54.02
47104;BME280;32853;52.164;5.400;2024-03-08T12:03:55;101108.75;;;12.27;54.03
47104;BME280;32853;52.164;5.400;2024-03-08T12:06:23;101097.53;;;12.24;53.20
47104;BME280;32853;52.164;5.400;2024-03-08T12:08:49;101107.25;;;12.21;52.78
47104;BME280;32853;52.164;5.400;2024-03-08T12:11:31;101095.19;;;12.38;52.57
47104;BME280;32853;52.164;5.400;2024-03-08T12:14:03;101097.94;;;12.74;52.92
47104;BME280;32853;52.164;5.400;2024-03-08T12:16:28;101091.06;;;12.32;52.33
47104;BME280;32853;52.164;5.400;2024-03-08T12:18:53;101078.44;;;12.40;51.51
47104;BME280;32853;52.164;5.400;2024-03-08T12:21:19;101085.53;;;12.18;51.95
47104;BME280;32853;52.164;5.400;2024-03-08T12:28:43;101074.50;;;12.50;51.44
47104;BME280;32853;52.164;5.400;2024-03-08T12:31:12;101072.81;;;12.49;50.55
47104;BME280;32853;52.164;5.400;2024-03-08T12:33:56;101059.72;;;12.68;50.40
47104;BME280;32853;52.164;5.400;2024-03-08T12:36:23;101056.97;;;12.53;50.13
47104;BME280;32853;52.164;5.400;2024-03-08T12:38:49;101050.44;;;12.80;50.40
47104;BME280;32853;52.164;5.400;2024-03-08T12:41:15;101052.84;;;12.85;49.88
47104;BME280;32853;52.164;5.400;2024-03-08T12:43:42;101048.47;;;12.66;49.77
47104;BME280;32853;52.164;5.400;2024-03-08T12:46:07;101039.94;;;12.80;49.57
47104;BME280;32853;52.164;5.400;2024-03-08T12:48:36;101036.25;;;13.03;49.74
47104;BME280;32853;52.164;5.400;2024-03-08T12:51:14;101035.78;;;12.76;49.69
47104;BME280;32853;52.164;5.400;2024-03-08T12:53:41;101039.09;;;12.79;48.98
47104;BME280;32853;52.164;5.400;2024-03-08T12:56:09;101019.38;;;13.08;49.56
47104;BME280;32853;52.164;5.400;2024-03-08T12:58:34;101028.09;;;13.28;49.14
47104;BME280;32853;52.164;5.400;2024-03-08T13:01:01;101025.91;;;13.19;49.15
47104;BME280;32853;52.164;5.400;2024-03-08T13:03:30;101023.28;;;12.81;49.79
47104;BME280;32853;52.164;5.400;2024-03-08T13:05:55;101018.47;;;13.09;49.38
47104;BME280;32853;52.164;5.400;2024-03-08T13:08:22;101002.69;;;13.28;49.53
47104;BME280;32853;52.164;5.400;2024-03-08T13:10:51;101012.72;;;13.20;48.91
47104;BME280;32853;52.164;5.400;2024-03-08T13:13:17;101016.56;;;12.75;49.48
47104;BME280;32853;52.164;5.400;2024-03-08T13:15:42;101012.34;;;12.71;49.66
47104;BME280;32853;52.164;5.400;2024-03-08T13:18:08;101000.50;;;12.82;49.33
47104;BME280;32853;52.164;5.400;2024-03-08T13:20:34;100998.47;;;12.88;49.47
47104;BME280;32853;52.164;5.400;2024-03-08T13:23:02;100996.19;;;12.99;49.85
47104;BME280;32853;52.164;5.400;2024-03-08T13:25:28;101002.56;;;12.94;49.40